Time;durP1;ratioP1;P1;durP2;ratioP2;P2;SDS_P1;SDS_P2;PMS_P1;PMS_P2;Temp;Humidity;BMP_temperature;BMP_pressure;BME280_temperature;BME280_humidity;BME280_pressure;Samples;Min_cycle;Max_cycle;Signal;HPM_P1;HPM_P2
2023/03/10 00:01:32;;;;;;;5.95;1.50;;;16.10;56.00;;;;;;6249230;28;20017;-72
2023/03/10 00:04:33;;;;;;;3.85;1.30;;;16.10;56.40;;;;;;6246444;28;20036;-72
2023/03/10 00:07:35;;;;;;;2.08;1.00;;;16.00;56.70;;;;;;6228041;28;20366;-72
2023/03/10 00:10:37;;;;;;;3.72;1.50;;;15.90;57.00;;;;;;6246366;28;20128;-74
2023/03/10 00:13:38;;;;;;;2.88;1.40;;;15.80;57.50;;;;;;6245926;28;20030;-73
2023/03/10 00:16:39;;;;;;;3.80;1.48;;;15.90;57.70;;;;;;6246173;28;20021;-73
2023/03/10 00:19:40;;;;;;;4.18;1.42;;;15.80;57.90;;;;;;6245376;28;20407;-74
2023/03/10 00:22:41;;;;;;;3.95;1.00;;;15.70;58.20;;;;;;6246159;28;20128;-73
2023/03/10 00:25:42;;;;;;;6.95;0.80;;;15.70;58.40;;;;;;6245363;28;20029;-73
2023/03/10 00:28:44;;;;;;;1.48;0.80;;;15.60;58.50;;;;;;6244968;28;20050;-72
2023/03/10 00:31:45;;;;;;;3.53;1.33;;;15.70;58.60;;;;;;6227505;28;20091;-72
2023/03/10 00:34:46;;;;;;;1.65;1.00;;;15.70;58.40;;;;;;6227415;28;20113;-72
2023/03/10 00:37:47;;;;;;;2.72;1.42;;;15.70;58.40;;;;;;6227092;28;20533;-73
2023/03/10 00:40:57;;;;;;;3.85;1.55;;;15.70;58.40;;;;;;6227247;28;20033;-72
2023/03/10 00:43:59;;;;;;;3.22;1.23;;;15.70;58.40;;;;;;6244127;28;20112;-71
2023/03/10 00:47:00;;;;;;;3.97;1.13;;;15.70;58.30;;;;;;6227361;28;20143;-72
2023/03/10 00:50:01;;;;;;;5.00;1.60;;;15.70;58.20;;;;;;6229701;28;20033;-72
2023/03/10 00:53:03;;;;;;;2.75;1.20;;;15.70;58.30;;;;;;6251743;28;20134;-72
2023/03/10 00:56:07;;;;;;;3.42;1.20;;;15.70;58.40;;;;;;6251582;28;20397;-73
2023/03/10 00:59:10;;;;;;;2.70;1.50;;;15.70;58.70;;;;;;6269836;28;20040;-72
2023/03/10 01:02:11;;;;;;;7.75;1.52;;;15.70;58.70;;;;;;6241955;28;20116;-72
2023/03/10 01:05:13;;;;;;;2.70;1.20;;;15.70;58.90;;;;;;6228246;28;20124;-72
2023/03/10 01:08:15;;;;;;;4.72;1.20;;;15.60;59.30;;;;;;6235614;28;20061;-71
2023/03/10 01:11:19;;;;;;;2.17;1.30;;;15.60;59.50;;;;;;6249226;28;20021;-73
2023/03/10 01:14:20;;;;;;;2.17;1.40;;;15.50;59.40;;;;;;6238987;28;20041;-72
2023/03/10 01:17:22;;;;;;;2.38;1.20;;;15.50;59.40;;;;;;6243727;28;20034;-73
2023/03/10 01:20:23;;;;;;;3.15;1.38;;;15.60;59.30;;;;;;6244299;28;20025;-72
2023/03/10 01:23:25;;;;;;;1.67;1.30;;;15.60;59.30;;;;;;6245302;28;20029;-72
2023/03/10 01:26:26;;;;;;;2.03;1.10;;;15.50;59.40;;;;;;6226165;28;20041;-72
2023/03/10 01:29:27;;;;;;;3.65;1.33;;;15.60;59.50;;;;;;6243109;28;20076;-73
2023/03/10 01:32:29;;;;;;;2.03;0.88;;;15.60;59.60;;;;;;6209222;28;20118;-72
2023/03/10 01:35:30;;;;;;;2.70;1.30;;;15.50;59.60;;;;;;6243182;28;20037;-72
2023/03/10 01:38:31;;;;;;;3.83;1.55;;;15.40;59.70;;;;;;6225042;28;20367;-71
2023/03/10 01:41:38;;;;;;;5.68;1.83;;;15.40;59.80;;;;;;6243301;28;20098;-73
2023/03/10 01:44:39;;;;;;;4.50;1.52;;;15.40;59.80;;;;;;6225328;28;20029;-72
2023/03/10 01:47:41;;;;;;;3.25;1.48;;;15.50;59.90;;;;;;6225194;28;20029;-71
2023/03/10 01:50:45;;;;;;;3.40;1.33;;;15.40;59.80;;;;;;6225284;28;20540;-72
2023/03/10 01:53:46;;;;;;;3.60;1.25;;;15.50;59.70;;;;;;6225125;28;20036;-72
2023/03/10 01:56:50;;;;;;;3.05;1.60;;;15.50;59.70;;;;;;6241854;28;20025;-72
2023/03/10 01:59:52;;;;;;;5.25;1.48;;;15.60;59.60;;;;;;6243239;28;20037;-74
2023/03/10 02:03:06;;;;;;;7.35;1.42;;;15.60;59.60;;;;;;6225862;28;20061;-72
2023/03/10 02:06:10;;;;;;;2.90;1.58;;;15.60;59.60;;;;;;6209720;28;20140;-72
2023/03/10 02:09:14;;;;;;;2.05;1.35;;;15.60;59.60;;;;;;6225793;28;20033;-72
2023/03/10 02:12:15;;;;;;;3.03;1.38;;;15.50;59.70;;;;;;6224663;28;20038;-71
2023/03/10 02:15:16;;;;;;;5.18;1.38;;;15.50;59.70;;;;;;6227190;28;20044;-71
2023/03/10 02:18:19;;;;;;;5.43;1.85;;;15.50;59.80;;;;;;6235934;28;20030;-72
2023/03/10 02:21:33;;;;;;;7.78;1.58;;;15.50;59.80;;;;;;6218693;28;20037;-71
2023/03/10 02:25:02;;;;;;;2.92;1.42;;;15.40;59.70;;;;;;6218738;28;20156;-72
2023/03/10 02:28:04;;;;;;;2.20;1.20;;;15.50;59.70;;;;;;6200610;28;20479;-71
2023/03/10 02:31:05;;;;;;;5.00;1.67;;;15.50;59.60;;;;;;6218768;28;20096;-72
2023/03/10 02:34:08;;;;;;;6.03;1.70;;;15.50;59.60;;;;;;6200697;28;20049;-71
2023/03/10 02:37:39;;;;;;;2.45;1.55;;;15.50;59.50;;;;;;6200805;28;20564;-72
2023/03/10 02:40:44;;;;;;;4.80;1.42;;;15.50;59.60;;;;;;6099242;29;20135;-71
2023/03/10 02:43:49;;;;;;;2.72;1.40;;;15.50;59.50;;;;;;6103776;29;20032;-71
2023/03/10 02:46:56;;;;;;;4.33;1.50;;;15.60;59.50;;;;;;6119284;29;20044;-72
2023/03/10 02:49:58;;;;;;;3.50;1.48;;;15.60;59.40;;;;;;6119018;29;20424;-72
2023/03/10 02:53:15;;;;;;;5.60;2.35;;;15.60;59.40;;;;;;6119575;29;20051;-73
2023/03/10 02:56:16;;;;;;;4.63;1.60;;;15.50;59.90;;;;;;6103067;29;20040;-71
2023/03/10 02:59:20;;;;;;;2.58;1.10;;;15.60;59.30;;;;;;6087401;29;20413;-72
2023/03/10 03:02:25;;;;;;;8.27;1.52;;;15.60;59.30;;;;;;6103084;29;20362;-72
2023/03/10 03:05:26;;;;;;;4.03;1.33;;;15.60;59.10;;;;;;6119270;29;20035;-71
2023/03/10 03:08:27;;;;;;;3.05;1.23;;;15.50;59.10;;;;;;6119118;29;20110;-73
2023/03/10 03:11:28;;;;;;;2.33;1.23;;;15.50;59.30;;;;;;6117176;29;20043;-71
2023/03/10 03:14:29;;;;;;;1.38;0.88;;;15.40;59.30;;;;;;6103241;29;20032;-72
2023/03/10 03:17:31;;;;;;;4.30;1.40;;;15.40;59.30;;;;;;6194654;28;20041;-72
2023/03/10 03:20:34;;;;;;;2.75;0.90;;;15.40;59.30;;;;;;6226143;28;20398;-72
2023/03/10 03:23:37;;;;;;;1.35;0.57;;;15.40;59.30;;;;;;6225432;28;20170;-72
2023/03/10 03:26:39;;;;;;;1.98;0.88;;;15.40;59.20;;;;;;6246534;28;20048;-71
2023/03/10 03:29:52;;;;;;;3.13;0.85;;;15.40;59.00;;;;;;6215960;28;20041;-70
2023/03/10 03:32:54;;;;;;;2.63;0.85;;;15.50;58.80;;;;;;6263821;28;20056;-72
2023/03/10 03:35:56;;;;;;;0.68;0.68;;;15.60;58.60;;;;;;6250264;28;20034;-72
2023/03/10 03:38:57;;;;;;;1.42;0.80;;;15.60;58.30;;;;;;6258810;28;20060;-72
2023/03/10 03:41:59;;;;;;;1.95;0.70;;;15.60;58.20;;;;;;6264137;28;20115;-71
2023/03/10 03:45:07;;;;;;;1.48;0.75;;;15.70;57.70;;;;;;6254477;28;20136;-71
2023/03/10 03:48:09;;;;;;;0.40;0.40;;;15.70;57.50;;;;;;6253379;28;20029;-72
2023/03/10 03:51:10;;;;;;;2.78;0.70;;;15.70;57.50;;;;;;6272560;28;20060;-72
2023/03/10 03:54:14;;;;;;;1.25;0.40;;;15.70;57.40;;;;;;6262037;28;20100;-71
2023/03/10 03:57:16;;;;;;;0.73;0.57;;;15.80;57.40;;;;;;6268164;28;20029;-71
2023/03/10 04:00:21;;;;;;;0.68;0.60;;;15.80;57.30;;;;;;6265510;28;20117;-72
2023/03/10 04:03:29;;;;;;;0.40;0.40;;;15.80;57.10;;;;;;6233143;28;20037;-73
2023/03/10 04:06:31;;;;;;;1.83;0.63;;;15.80;56.90;;;;;;6245233;28;20099;-71
2023/03/10 04:09:32;;;;;;;1.48;0.60;;;15.80;56.90;;;;;;6246248;28;20033;-70
2023/03/10 04:12:33;;;;;;;2.67;0.88;;;15.80;56.90;;;;;;6228169;28;20116;-73
2023/03/10 04:15:34;;;;;;;0.45;0.45;;;15.70;56.80;;;;;;6228103;28;20073;-72
2023/03/10 04:18:36;;;;;;;1.80;0.52;;;15.70;56.90;;;;;;6245281;28;20048;-72
2023/03/10 04:21:38;;;;;;;0.98;0.50;;;15.70;56.90;;;;;;6228429;28;20029;-71
2023/03/10 04:24:40;;;;;;;3.83;0.38;;;15.70;56.90;;;;;;6227878;28;20021;-72
2023/03/10 04:27:41;;;;;;;1.50;0.52;;;15.70;56.90;;;;;;6227277;28;20037;-71
2023/03/10 04:30:44;;;;;;;1.80;0.60;;;15.70;56.90;;;;;;6227590;28;20033;-71
2023/03/10 04:33:47;;;;;;;3.45;1.02;;;15.60;56.80;;;;;;6227256;28;20068;-71
2023/03/10 04:36:48;;;;;;;1.23;0.50;;;15.90;56.80;;;;;;6209977;28;20080;-73
2023/03/10 04:39:50;;;;;;;0.63;0.50;;;15.70;56.60;;;;;;6227041;28;20387;-72
2023/03/10 04:42:51;;;;;;;0.90;0.40;;;15.70;56.50;;;;;;6227828;28;20091;-72
2023/03/10 04:45:53;;;;;;;3.15;0.88;;;15.80;56.50;;;;;;6211181;28;20393;-71
2023/03/10 04:48:54;;;;;;;0.90;0.57;;;15.70;56.40;;;;;;6226932;28;20134;-73
2023/03/10 04:51:56;;;;;;;0.70;0.40;;;15.70;56.40;;;;;;6244935;28;20045;-72
2023/03/10 04:54:58;;;;;;;0.30;0.30;;;15.70;56.40;;;;;;6227274;28;20325;-72
2023/03/10 04:57:59;;;;;;;1.52;0.50;;;15.60;56.30;;;;;;6226094;28;20091;-71
2023/03/10 05:01:00;;;;;;;0.88;0.45;;;15.60;56.30;;;;;;6210126;28;20025;-72
2023/03/10 05:04:04;;;;;;;0.50;0.50;;;15.70;56.20;;;;;;6228905;28;20030;-72
2023/03/10 05:07:06;;;;;;;1.88;0.50;;;15.70;56.10;;;;;;6226209;28;20398;-72
2023/03/10 05:10:11;;;;;;;2.25;0.75;;;15.60;56.10;;;;;;6226775;28;20044;-71
2023/03/10 05:13:13;;;;;;;11.15;0.80;;;15.50;56.40;;;;;;6226785;28;20454;-72
2023/03/10 05:16:19;;;;;;;0.88;0.57;;;15.40;56.80;;;;;;6243074;28;20041;-71
2023/03/10 05:19:21;;;;;;;1.23;0.60;;;15.20;57.20;;;;;;6218015;28;20137;-72
2023/03/10 05:22:22;;;;;;;1.38;0.50;;;15.10;57.50;;;;;;6218457;28;20128;-71
2023/03/10 05:25:24;;;;;;;1.25;0.40;;;15.00;57.60;;;;;;6202122;28;20034;-72
2023/03/10 05:28:25;;;;;;;3.33;0.45;;;15.00;57.70;;;;;;6201889;28;20034;-72
2023/03/10 05:31:27;;;;;;;1.55;0.77;;;15.00;57.60;;;;;;6242644;28;20037;-72
2023/03/10 05:34:34;;;;;;;1.17;0.55;;;15.10;57.30;;;;;;6269187;28;20108;-71
2023/03/10 05:37:42;;;;;;;0.20;0.20;;;15.10;57.20;;;;;;6268792;28;20100;-71
2023/03/10 05:40:43;;;;;;;0.35;0.30;;;15.20;56.80;;;;;;6234824;28;20025;-72
2023/03/10 05:43:45;;;;;;;0.38;0.30;;;15.30;55.90;;;;;;6250546;28;20029;-71
2023/03/10 05:46:49;;;;;;;0.88;0.40;;;15.40;55.30;;;;;;6250544;28;20477;-72
2023/03/10 05:49:50;;;;;;;0.20;0.20;;;15.50;54.40;;;;;;6250074;28;20120;-71
2023/03/10 05:52:52;;;;;;;2.28;0.40;;;15.70;53.60;;;;;;6250654;28;20032;-71
2023/03/10 05:55:54;;;;;;;0.28;0.28;;;15.80;53.30;;;;;;6250500;28;20041;-72
2023/03/10 05:58:56;;;;;;;1.70;0.40;;;15.90;52.60;;;;;;6267486;28;20032;-72
2023/03/10 06:02:02;;;;;;;0.85;0.40;;;16.00;51.40;;;;;;6224759;28;20025;-72
2023/03/10 06:05:05;;;;;;;1.55;0.73;;;16.20;49.50;;;;;;6242601;28;20040;-72
2023/03/10 06:08:07;;;;;;;1.35;0.20;;;16.50;45.50;;;;;;6224541;28;20072;-72
2023/03/10 06:11:08;;;;;;;0.60;0.20;;;16.80;44.10;;;;;;6242621;28;20037;-71
2023/03/10 06:14:09;;;;;;;2.55;0.15;;;17.10;44.70;;;;;;6225076;28;20037;-71
2023/03/10 06:17:10;;;;;;;0.00;0.00;;;17.20;44.60;;;;;;6225042;28;20036;-70
2023/03/10 06:20:12;;;;;;;0.00;0.00;;;17.30;43.30;;;;;;6243359;28;20451;-73
2023/03/10 06:23:16;;;;;;;2.38;0.20;;;17.30;41.80;;;;;;6243305;28;20025;-71
2023/03/10 06:26:17;;;;;;;1.40;0.32;;;17.50;40.60;;;;;;6243191;28;20130;-71
2023/03/10 06:29:18;;;;;;;2.47;0.30;;;17.60;39.50;;;;;;6225862;28;20071;-73
2023/03/10 06:32:19;;;;;;;0.30;0.20;;;17.80;39.10;;;;;;6243951;28;20036;-72
2023/03/10 06:35:20;;;;;;;1.35;0.30;;;17.90;38.40;;;;;;6234125;28;20422;-72
2023/03/10 06:38:22;;;;;;;1.10;0.25;;;18.00;37.30;;;;;;6241694;28;20053;-73
2023/03/10 06:41:24;;;;;;;1.17;0.17;;;18.10;37.10;;;;;;6245343;28;20131;-71
2023/03/10 06:44:25;;;;;;;0.68;0.32;;;18.10;37.90;;;;;;6209527;28;20030;-72
2023/03/10 06:47:26;;;;;;;0.50;0.20;;;18.10;38.70;;;;;;6242863;28;20026;-72
2023/03/10 06:50:27;;;;;;;0.65;0.20;;;18.10;39.20;;;;;;6224916;28;20037;-72
2023/03/10 06:53:28;;;;;;;0.55;0.30;;;18.00;39.30;;;;;;6242917;28;20568;-72
2023/03/10 06:56:29;;;;;;;0.40;0.30;;;18.00;39.60;;;;;;6224406;28;20041;-73
2023/03/10 06:59:31;;;;;;;4.47;0.50;;;18.00;39.80;;;;;;6226492;28;20036;-72
2023/03/10 07:02:32;;;;;;;0.50;0.30;;;17.90;38.90;;;;;;6213690;28;20060;-74
2023/03/10 07:05:33;;;;;;;2.13;0.20;;;18.00;38.50;;;;;;6247836;28;20033;-72
2023/03/10 07:08:35;;;;;;;0.32;0.32;;;18.00;38.70;;;;;;6247789;28;20433;-73
2023/03/10 07:11:36;;;;;;;0.20;0.20;;;18.00;38.70;;;;;;6230424;28;20542;-73
2023/03/10 07:14:37;;;;;;;1.17;0.20;;;18.00;38.20;;;;;;6248082;28;20136;-72
2023/03/10 07:17:38;;;;;;;1.67;0.35;;;18.20;38.50;;;;;;6229962;28;20504;-73
2023/03/10 07:20:40;;;;;;;1.42;0.47;;;18.00;38.50;;;;;;6248124;28;20033;-73
2023/03/10 07:23:41;;;;;;;0.15;0.15;;;18.00;38.30;;;;;;6249011;28;20382;-72
2023/03/10 07:26:42;;;;;;;0.93;0.25;;;18.00;38.60;;;;;;6249235;28;20087;-75
2023/03/10 07:29:43;;;;;;;3.40;0.20;;;18.00;38.60;;;;;;6233267;28;20168;-72
2023/03/10 07:32:44;;;;;;;3.35;0.30;;;18.00;38.40;;;;;;6234350;28;20101;-72
2023/03/10 07:35:45;;;;;;;1.40;0.47;;;18.10;37.90;;;;;;6252111;28;20097;-75
2023/03/10 07:38:48;;;;;;;2.47;0.85;;;18.00;37.50;;;;;;6269493;28;20040;-74
2023/03/10 07:41:49;;;;;;;1.55;0.20;;;18.00;38.10;;;;;;6248262;28;20022;-72
2023/03/10 07:44:50;;;;;;;1.65;0.47;;;18.00;38.50;;;;;;6247318;28;20068;-73
2023/03/10 07:47:52;;;;;;;0.73;0.28;;;18.00;38.60;;;;;;6245529;28;20108;-74
2023/03/10 07:50:57;;;;;;;1.67;0.55;;;18.00;38.60;;;;;;6229652;28;20149;-74
2023/03/10 07:53:58;;;;;;;0.85;0.30;;;18.10;38.40;;;;;;6248151;28;20499;-74
2023/03/10 07:56:59;;;;;;;0.10;0.10;;;18.00;38.10;;;;;;6230082;28;20053;-75
2023/03/10 08:00:01;;;;;;;0.90;0.30;;;18.00;38.10;;;;;;6227773;28;20025;-74
2023/03/10 08:03:02;;;;;;;3.33;0.60;;;18.10;38.00;;;;;;6228648;28;20057;-74
2023/03/10 08:06:04;;;;;;;5.30;1.13;;;18.10;38.00;;;;;;6245484;28;20208;-74
2023/03/10 08:09:05;;;;;;;4.05;0.52;;;18.10;37.90;;;;;;6227772;28;20030;-73
2023/03/10 08:12:07;;;;;;;0.55;0.10;;;18.20;37.90;;;;;;6242844;28;20038;-74
2023/03/10 08:15:09;;;;;;;0.50;0.40;;;18.20;37.60;;;;;;6228635;28;20459;-76
2023/03/10 08:18:11;;;;;;;0.13;0.13;;;18.20;37.40;;;;;;6231753;28;20028;-74
2023/03/10 08:21:12;;;;;;;2.15;0.70;;;18.20;37.60;;;;;;6252665;28;20044;-72
2023/03/10 08:24:13;;;;;;;0.60;0.40;;;18.20;37.80;;;;;;6270804;28;20509;-75
2023/03/10 08:27:14;;;;;;;1.98;0.63;;;18.20;37.80;;;;;;6270637;28;20082;-73
2023/03/10 08:30:16;;;;;;;1.27;0.35;;;18.10;38.20;;;;;;6252629;28;20385;-73
2023/03/10 08:33:17;;;;;;;2.13;0.22;;;17.80;39.80;;;;;;6269925;28;20748;-75
2023/03/10 08:36:21;;;;;;;1.05;0.38;;;17.50;40.00;;;;;;6269405;28;20039;-72
2023/03/10 08:39:22;;;;;;;2.08;0.40;;;17.30;40.70;;;;;;6269311;28;20101;-73
2023/03/10 08:42:23;;;;;;;1.42;0.30;;;17.30;41.20;;;;;;6269289;28;20040;-72
2023/03/10 08:45:24;;;;;;;3.50;0.47;;;17.30;41.60;;;;;;6270305;28;20135;-72
2023/03/10 08:48:25;;;;;;;4.75;0.50;;;17.30;42.10;;;;;;6269500;28;20059;-74
2023/03/10 08:51:27;;;;;;;1.10;0.38;;;17.30;42.20;;;;;;6270040;28;20214;-73
2023/03/10 08:54:28;;;;;;;2.25;0.60;;;17.40;42.20;;;;;;6269771;28;20113;-72
2023/03/10 08:57:29;;;;;;;1.85;0.75;;;17.50;42.20;;;;;;6250012;28;20403;-72
2023/03/10 09:00:30;;;;;;;5.93;0.70;;;17.50;42.10;;;;;;6227127;28;20091;-73
2023/03/10 09:03:35;;;;;;;3.70;0.40;;;17.50;42.20;;;;;;6226614;28;20136;-72
2023/03/10 09:06:37;;;;;;;2.33;0.68;;;17.60;42.20;;;;;;6227643;28;20029;-72
2023/03/10 09:09:38;;;;;;;3.65;0.60;;;17.50;42.20;;;;;;6226772;28;20095;-73
2023/03/10 09:12:39;;;;;;;4.18;0.60;;;17.40;42.70;;;;;;6245151;28;20029;-73
2023/03/10 09:15:41;;;;;;;2.28;0.90;;;17.30;43.30;;;;;;6247592;28;20505;-74
2023/03/10 09:18:42;;;;;;;1.00;0.47;;;17.30;43.70;;;;;;6237778;28;20080;-73
2023/03/10 09:21:43;;;;;;;2.10;0.93;;;17.30;44.00;;;;;;6227156;28;20128;-73
2023/03/10 09:24:44;;;;;;;1.80;0.50;;;17.20;44.20;;;;;;6202045;28;20033;-74
2023/03/10 09:27:45;;;;;;;2.55;0.60;;;17.20;44.40;;;;;;6219584;28;20034;-74
2023/03/10 09:30:47;;;;;;;3.15;0.70;;;17.20;44.30;;;;;;6219003;28;20026;-73
2023/03/10 09:33:48;;;;;;;2.35;0.57;;;17.10;44.30;;;;;;6219780;28;20084;-72
2023/03/10 09:36:49;;;;;;;1.27;0.73;;;17.20;44.40;;;;;;6201592;28;20025;-73
2023/03/10 09:39:52;;;;;;;2.28;0.60;;;17.20;44.30;;;;;;6219082;28;20048;-73
2023/03/10 09:43:05;;;;;;;1.70;0.50;;;17.30;44.30;;;;;;6219070;28;20034;-72
2023/03/10 09:46:32;;;;;;;1.60;0.45;;;17.30;44.10;;;;;;6217620;28;20045;-75
2023/03/10 09:49:46;;;;;;;0.20;0.20;;;17.30;43.70;;;;;;6221839;28;20139;-74
2023/03/10 09:52:59;;;;;;;1.63;0.65;;;17.30;43.70;;;;;;6226664;28;20167;-73
2023/03/10 09:56:03;;;;;;;1.00;0.45;;;17.40;42.70;;;;;;6226544;28;20040;-74
2023/03/10 09:59:20;;;;;;;2.08;0.47;;;17.40;42.10;;;;;;6243328;28;20045;-74
2023/03/10 10:02:29;;;;;;;2.33;0.93;;;17.60;41.50;;;;;;6209516;28;20056;-74
2023/03/10 10:05:32;;;;;;;4.50;1.47;;;17.70;41.60;;;;;;6243077;28;20134;-73
2023/03/10 10:08:49;;;;;;;6.80;0.80;;;17.70;41.50;;;;;;6224891;28;20562;-73
2023/03/10 10:11:50;;;;;;;4.72;0.80;;;17.80;41.40;;;;;;6238437;28;20084;-74
2023/03/10 10:15:12;;;;;;;1.75;0.70;;;17.90;41.10;;;;;;6249847;28;20048;-73
2023/03/10 10:18:26;;;;;;;1.75;0.30;;;18.00;40.70;;;;;;6244105;28;20095;-74
2023/03/10 10:21:46;;;;;;;1.67;0.52;;;18.10;40.30;;;;;;6242744;28;20228;-73
2023/03/10 10:25:20;;;;;;;5.90;0.50;;;18.30;40.10;;;;;;6243793;28;20033;-73
2023/03/10 10:29:05;;;;;;;2.63;0.70;;;18.30;40.00;;;;;;6242624;28;20451;-72
2023/03/10 10:32:14;;;;;;;3.38;0.98;;;18.40;39.50;;;;;;6119302;29;20036;-75
2023/03/10 10:35:21;;;;;;;1.10;0.35;;;18.50;39.00;;;;;;6118524;29;20127;-74
2023/03/10 10:38:30;;;;;;;3.45;0.85;;;18.70;38.00;;;;;;6119223;29;20130;-75
2023/03/10 10:41:33;;;;;;;2.72;0.98;;;18.90;37.90;;;;;;6119241;29;20693;-74
2023/03/10 10:44:41;;;;;;;3.10;0.57;;;19.00;37.90;;;;;;6119250;29;20047;-72
2023/03/10 10:47:50;;;;;;;1.00;0.40;;;19.10;37.40;;;;;;6119051;29;20042;-72
2023/03/10 10:50:54;;;;;;;2.15;0.40;;;19.10;37.30;;;;;;6079958;29;20458;-75
2023/03/10 10:53:56;;;;;;;2.78;0.57;;;19.10;37.50;;;;;;6096239;29;20124;-73
2023/03/10 10:57:00;;;;;;;2.25;0.95;;;19.00;37.90;;;;;;6096995;29;20039;-73
2023/03/10 11:00:25;;;;;;;1.73;0.50;;;18.90;38.30;;;;;;6094519;29;20107;-72
2023/03/10 11:03:28;;;;;;;2.20;0.52;;;18.80;38.40;;;;;;6133079;29;20042;-73
2023/03/10 11:06:31;;;;;;;2.95;0.70;;;18.90;38.60;;;;;;6161998;28;20034;-74
2023/03/10 11:09:32;;;;;;;2.50;0.90;;;18.90;38.60;;;;;;6266425;28;20041;-73
2023/03/10 11:12:40;;;;;;;3.50;0.70;;;18.90;38.80;;;;;;6266721;28;20082;-72
2023/03/10 11:16:02;;;;;;;5.93;1.55;;;19.10;38.90;;;;;;6249073;28;20053;-73
2023/03/10 11:19:23;;;;;;;4.07;0.73;;;19.30;38.40;;;;;;6211371;28;20560;-73
2023/03/10 11:22:38;;;;;;;1.73;0.70;;;19.60;38.10;;;;;;6219206;28;20091;-73
2023/03/10 11:26:03;;;;;;;1.90;0.40;;;19.50;37.20;;;;;;6218958;28;20347;-75
2023/03/10 11:29:22;;;;;;;1.63;0.90;;;19.80;36.20;;;;;;6218552;28;20048;-75
2023/03/10 11:33:04;;;;;;;2.47;0.60;;;19.80;36.10;;;;;;6201154;28;20180;-74
2023/03/10 11:36:43;;;;;;;5.72;1.95;;;19.80;36.10;;;;;;6226602;28;20029;-73
2023/03/10 11:39:56;;;;;;;3.72;0.90;;;19.80;36.10;;;;;;6215401;28;20042;-74
2023/03/10 11:43:14;;;;;;;2.38;0.60;;;19.70;36.00;;;;;;6225850;28;20139;-74
2023/03/10 11:46:33;;;;;;;1.48;0.80;;;19.50;36.60;;;;;;6223744;28;20033;-73
2023/03/10 11:49:39;;;;;;;1.13;0.65;;;19.50;36.00;;;;;;6246483;28;20347;-74
2023/03/10 11:52:41;;;;;;;10.27;2.08;;;19.40;36.10;;;;;;6228789;28;20061;-73
2023/03/10 11:55:43;;;;;;;3.40;1.27;;;19.40;36.10;;;;;;6230489;28;20044;-73
2023/03/10 11:58:50;;;;;;;6.43;1.10;;;19.40;36.10;;;;;;6254148;28;20033;-75
2023/03/10 12:02:14;;;;;;;4.93;0.77;;;19.40;36.20;;;;;;6234076;28;20025;-72
2023/03/10 12:05:25;;;;;;;1.40;0.80;;;19.50;34.90;;;;;;6267095;28;20052;-75
2023/03/10 12:08:33;;;;;;;1.95;0.63;;;19.60;34.20;;;;;;6270076;28;20025;-72
2023/03/10 12:11:35;;;;;;;7.18;0.63;;;19.80;33.70;;;;;;6251696;28;20043;-72
2023/03/10 12:14:36;;;;;;;2.45;0.52;;;20.10;33.80;;;;;;6270717;28;20029;-73
2023/03/10 12:17:39;;;;;;;4.00;0.52;;;20.40;32.60;;;;;;6250328;28;20500;-72
2023/03/10 12:20:40;;;;;;;3.53;0.70;;;20.80;31.80;;;;;;6245311;28;20049;-73
2023/03/10 12:23:44;;;;;;;3.60;0.65;;;21.20;30.70;;;;;;6226839;28;20041;-73
2023/03/10 12:26:45;;;;;;;1.58;0.63;;;21.70;30.00;;;;;;6245252;28;20080;-73
2023/03/10 12:29:47;;;;;;;2.58;1.00;;;21.90;29.30;;;;;;6245785;28;20040;-72
2023/03/10 12:32:48;;;;;;;2.58;0.65;;;22.10;29.20;;;;;;6226609;28;20030;-73
2023/03/10 12:35:53;;;;;;;3.97;0.88;;;22.30;29.00;;;;;;6244751;28;20203;-73
2023/03/10 12:38:56;;;;;;;2.22;0.70;;;22.60;28.80;;;;;;6243876;28;20586;-72
2023/03/10 12:42:02;;;;;;;5.00;0.88;;;22.80;28.50;;;;;;6226106;28;20430;-72
2023/03/10 12:45:17;;;;;;;2.35;0.90;;;23.00;28.20;;;;;;6244852;28;20026;-72
2023/03/10 12:48:19;;;;;;;3.20;0.70;;;23.30;27.50;;;;;;6244353;28;20053;-72
2023/03/10 12:51:24;;;;;;;1.38;0.50;;;23.90;27.30;;;;;;6244731;28;20403;-74
2023/03/10 12:54:41;;;;;;;2.40;0.80;;;24.10;26.80;;;;;;6245285;28;20064;-72
2023/03/10 12:58:20;;;;;;;3.45;0.88;;;24.30;26.50;;;;;;6225455;28;20453;-73
2023/03/10 13:01:26;;;;;;;5.85;1.05;;;24.30;26.50;;;;;;6242299;28;20053;-74
2023/03/10 13:04:28;;;;;;;3.20;0.55;;;24.20;26.50;;;;;;6244656;28;20033;-73
2023/03/10 13:07:29;;;;;;;3.90;0.95;;;24.60;26.20;;;;;;6225823;28;20041;-73
2023/03/10 13:10:32;;;;;;;2.95;0.85;;;24.80;26.00;;;;;;6226330;28;20536;-73
2023/03/10 13:13:35;;;;;;;3.33;0.88;;;24.60;26.00;;;;;;6244124;28;20583;-73
2023/03/10 13:16:37;;;;;;;1.55;0.60;;;24.10;26.10;;;;;;6225228;28;20125;-73
2023/03/10 13:19:38;;;;;;;2.42;0.68;;;23.70;26.40;;;;;;6216239;28;20522;-74
2023/03/10 13:22:39;;;;;;;2.22;0.40;;;23.40;26.50;;;;;;6201073;28;20030;-74
2023/03/10 13:25:51;;;;;;;1.63;0.60;;;23.10;26.60;;;;;;6219074;28;20030;-75
2023/03/10 13:28:58;;;;;;;2.08;0.60;;;22.90;26.60;;;;;;6200350;28;20069;-73
2023/03/10 13:31:59;;;;;;;4.03;0.60;;;22.70;26.70;;;;;;6241793;28;20109;-74
2023/03/10 13:35:19;;;;;;;2.80;0.50;;;22.50;27.00;;;;;;6225914;28;20033;-72
2023/03/10 13:38:23;;;;;;;1.40;0.57;;;22.40;27.10;;;;;;6224918;28;20363;-73
2023/03/10 13:41:24;;;;;;;5.88;0.57;;;22.30;27.20;;;;;;6225165;28;20097;-72
2023/03/10 13:44:41;;;;;;;1.92;0.57;;;22.30;27.20;;;;;;6243141;28;20043;-73
2023/03/10 13:47:42;;;;;;;3.40;0.70;;;22.20;27.00;;;;;;6224206;28;20018;-74
2023/03/10 13:50:43;;;;;;;3.50;0.98;;;22.20;26.80;;;;;;6242089;28;20041;-75
2023/03/10 13:53:46;;;;;;;4.40;0.80;;;22.30;27.00;;;;;;6242246;28;20467;-73
2023/03/10 13:57:15;;;;;;;1.00;0.55;;;22.30;27.10;;;;;;6224138;28;20375;-72
2023/03/10 14:00:22;;;;;;;5.07;0.60;;;22.30;27.10;;;;;;6211265;28;20140;-73
2023/03/10 14:03:24;;;;;;;1.13;0.45;;;22.30;26.90;;;;;;6223210;28;20026;-73
2023/03/10 14:06:26;;;;;;;1.38;0.38;;;22.30;26.50;;;;;;6218770;28;20052;-73
2023/03/10 14:09:27;;;;;;;2.10;0.80;;;22.20;26.10;;;;;;6200087;28;20084;-73
2023/03/10 14:12:51;;;;;;;1.23;0.40;;;22.00;26.10;;;;;;6216547;28;20030;-73
2023/03/10 14:15:53;;;;;;;3.72;0.50;;;21.90;25.90;;;;;;6200278;28;20123;-73
2023/03/10 14:18:54;;;;;;;6.07;1.23;;;21.60;25.30;;;;;;6203562;28;20371;-73
2023/03/10 14:21:55;;;;;;;10.02;1.17;;;21.50;25.00;;;;;;6218539;28;20065;-73
2023/03/10 14:24:58;;;;;;;3.28;0.88;;;21.30;25.00;;;;;;6217922;28;20029;-74
2023/03/10 14:28:27;;;;;;;4.97;1.63;;;21.10;25.10;;;;;;6221863;28;20068;-76
2023/03/10 14:31:28;;;;;;;5.90;1.30;;;20.90;25.10;;;;;;6232775;28;20505;-73
2023/03/10 14:34:29;;;;;;;4.82;1.02;;;20.70;25.10;;;;;;6241667;28;20048;-73
2023/03/10 14:37:30;;;;;;;3.90;1.10;;;20.60;25.30;;;;;;6241592;28;20053;-74
2023/03/10 14:40:37;;;;;;;3.25;0.98;;;20.50;25.30;;;;;;6241538;28;20025;-73
2023/03/10 14:43:40;;;;;;;5.53;0.90;;;20.40;25.30;;;;;;6223964;28;20034;-73
2023/03/10 14:46:41;;;;;;;3.80;0.45;;;20.30;25.50;;;;;;6224082;28;20030;-73
2023/03/10 14:49:42;;;;;;;3.55;0.82;;;20.30;25.60;;;;;;6229382;28;20056;-75
2023/03/10 14:52:43;;;;;;;3.15;0.95;;;20.30;25.70;;;;;;6273097;28;20028;-73
2023/03/10 14:55:47;;;;;;;3.10;1.00;;;20.20;25.90;;;;;;6270923;28;20059;-72
2023/03/10 14:58:51;;;;;;;0.65;0.38;;;20.20;26.30;;;;;;6266433;28;20082;-72
2023/03/10 15:01:54;;;;;;;6.15;1.30;;;20.20;26.50;;;;;;6259702;28;20045;-73
2023/03/10 15:04:55;;;;;;;6.57;0.88;;;20.20;26.50;;;;;;6241973;28;20044;-72
2023/03/10 15:07:56;;;;;;;6.97;1.00;;;20.20;26.60;;;;;;6241954;28;20497;-73
2023/03/10 15:10:57;;;;;;;10.07;1.27;;;20.20;26.80;;;;;;6242158;28;20155;-73
2023/03/10 15:13:58;;;;;;;6.88;1.65;;;20.10;26.80;;;;;;6242865;28;20126;-73
2023/03/10 15:16:59;;;;;;;6.55;0.88;;;20.10;26.90;;;;;;6223138;28;20041;-74
2023/03/10 15:20:00;;;;;;;7.35;0.90;;;20.10;27.00;;;;;;6242120;28;20065;-72
2023/03/10 15:23:01;;;;;;;3.88;0.82;;;20.00;27.00;;;;;;6227580;28;20210;-73
2023/03/10 15:26:08;;;;;;;4.15;1.13;;;20.00;27.00;;;;;;6245399;28;20033;-73
2023/03/10 15:29:18;;;;;;;4.07;0.85;;;20.00;26.90;;;;;;6245245;28;20045;-75
2023/03/10 15:32:19;;;;;;;3.10;0.88;;;19.90;26.60;;;;;;6245202;28;20037;-74
2023/03/10 15:35:21;;;;;;;4.82;1.10;;;19.80;26.60;;;;;;6245309;28;20493;-73
2023/03/10 15:38:22;;;;;;;4.00;1.02;;;19.80;26.60;;;;;;6226595;28;20140;-73
2023/03/10 15:41:23;;;;;;;8.00;1.02;;;19.70;26.60;;;;;;6245204;28;20025;-72
2023/03/10 15:44:24;;;;;;;3.92;1.00;;;19.70;26.50;;;;;;6244899;28;20022;-73
2023/03/10 15:47:25;;;;;;;6.70;1.25;;;19.60;26.50;;;;;;6230360;28;20029;-73
2023/03/10 15:50:27;;;;;;;6.00;0.90;;;19.60;26.70;;;;;;6270194;28;20033;-71
2023/03/10 15:53:28;;;;;;;3.28;1.30;;;19.60;26.70;;;;;;6253881;28;20056;-73
2023/03/10 15:56:29;;;;;;;3.75;1.13;;;19.50;26.70;;;;;;6253400;28;20044;-72
2023/03/10 15:59:33;;;;;;;10.32;1.60;;;19.50;27.10;;;;;;6236185;28;20033;-72